Pearl, Illinois
Current Conditions -  °F | °C
As of 9:15 AM on Thursday 18 Dec 2014 (Local Time) from KPPQ Reporting Station
Light Snow Light Snow  
Wind Chill: 27°   Ceiling: 2700
Heat Index: 27°   Visibility: 2.5mi
Dew Point: 25°   Wind: 0mph
Humidity: 92%   Direction: NA
Pressure: 30.31"   Gusts: NA
Location:  39.46°N, 90.63°W
Report Text: KPPQ 181515Z AUTO 00000KT 2 1/2SM -SN SCT006 SCT017 OVC027 M03/M04 A3031 RMK AO2 T10261038
Loading
Personal Weather Stations






























Interactive Weather Map New forecast layout! Learn more

10-Day Weather Forecast

Advertisements
Track Severe Weather on mobile